ESGT

Trollhättan-Vänersborg Airport

Trollhättan, Sweden
METAR ESGT 170950Z 21006KT 7000 BR OVC004 M00/M00 Q0985
Observed Flight Rules
Jan-17 @ 09:50 UTC (46 minutes ago) Instrument Flight Rules
Wind Visibility Clouds Conditions
210° at 6 knots 7,001 meters
  • Overcast at 400' AGL
  • Mist
Temperatures Readings
Current 0°C / 32°F
Dewpoint 0°C / 32°F
Humidity 100%
Altimeter 29.08" Hg
Pressure 985 hPa
Elevation 41
METAR ESGT 170950Z 21006KT 7000 BR OVC004 M00/M00 Q0985
Observed Flight Rules
Jan-17 @ 09:50 UTC
(46 minutes ago)
LIFR
Wind Visibility
210° at 6 knots 7,001 meters
Clouds
  • Overcast at 400' AGL
Conditions
  • Mist
Temperature Dewpoint
0°C / 32°F 0°C / 32°F
Humidity Altimeter Pressure
100% 29.08" Hg 985 hPa